Latest Weather Observations for Hogan Island

IDV60801

Issued at 6:43 pm EST Tuesday 17 May 2022 (issued every 10 minutes, with the page automatically refreshed every 10 minutes)

About weather observations | Map of weather stations | Latest weather observations for VIC | Other Formats
Station Details ID: 200838 Name: HOGAN ISLAND Lat: -39.22 Lon: 146.98 Height: 116.0 m
Data from the previous 72 hours. | See also: Recent months at Hogan Island
Date/Time
EST
Temp
°C
App
Temp
°C
Dew
Point
°C
Rel
Hum
%
Delta-T
°C
Wind Press
QNH
hPa
Press
MSL
hPa
Rain since
9am
mm
Dir  Spd
km/h
Gust
km/h
Spd
kts
Gust
kts
17/06:30pm 12.7 0.2 12.5 99 0.1 WNW 70 87 38 47 1012.4 1012.3 0.6
17/06:00pm 12.9 0.6 12.7 99 0.1 WNW 69 83 37 45 1012.6 1012.5 0.6
17/05:56pm 12.7 1.1 12.5 99 0.1 WNW 65 83 35 45 1012.4 1012.3 0.6
17/05:30pm 13.0 1.5 12.8 99 0.1 WNW 65 78 35 42 1012.6 1012.5 0.6
17/05:00pm 12.8 1.6 12.6 99 0.1 WNW 63 74 34 40 1012.8 1012.7 0.6
17/04:30pm 12.6 1.4 12.4 99 0.1 WNW 63 76 34 41 1012.6 1012.5 0.6
17/04:00pm 12.1 0.0 12.1 100 0.0 WNW 67 80 36 43 1012.6 1012.5 0.6
17/03:32pm 12.5 0.9 12.3 99 0.1 WNW 65 83 35 45 1012.5 1012.4 0.6
17/03:30pm 12.6 0.7 12.6 100 0.0 WNW 67 83 36 45 1012.5 1012.4 0.6
17/03:08pm 12.8 0.9 12.8 100 0.0 WNW 67 85 36 46 1012.2 1012.1 0.6
17/03:00pm 12.8 0.4 12.8 100 0.0 WNW 70 85 38 46 1012.1 1012.0 0.6
17/02:40pm 13.3 1.6 13.3 100 0.0 WNW 67 85 36 46 1012.6 1012.5 0.6
17/02:30pm 12.5 0.0 12.5 100 0.0 WNW 70 85 38 46 1012.4 1012.3 0.6
17/02:00pm 12.2 -0.2 12.2 100 0.0 WNW 69 89 37 48 1012.7 1012.6 0.6
17/01:58pm 12.2 -0.4 12.2 100 0.0 WNW 70 89 38 48 1012.5 1012.4 0.6
17/01:30pm 12.5 0.2 12.5 100 0.0 WNW 69 85 37 46 1012.2 1012.1 0.6
17/01:08pm 12.2 -0.2 12.2 100 0.0 WNW 69 87 37 47 1012.3 1012.2 0.6
17/01:00pm 12.7 -0.1 12.7 100 0.0 WNW 72 83 39 45 1012.7 1012.6 0.6
17/12:30pm 12.0 -0.7 12.0 100 0.0 WNW 70 89 38 48 1012.8 1012.7 0.6
17/12:01pm 11.6 -1.0 11.6 100 0.0 WNW 69 95 37 51 1012.9 1012.8 0.2
17/12:00pm 11.9 -0.6 11.9 100 0.0 WNW 69 82 37 44 1013.1 1013.0 0.2
17/11:30am 11.6 1.8 11.6 100 0.0 WNW 54 70 29 38 1013.8 1013.7 0.2
17/11:13am 11.3 0.9 11.3 100 0.0 WNW 57 78 31 42 1013.7 1013.6 0.2
17/11:00am 11.4 0.6 11.4 100 0.0 WNW 59 67 32 36 1014.1 1014.0 0.2
17/10:30am 11.3 0.9 11.3 100 0.0 WNW 57 70 31 38 1014.3 1014.3 0.2
17/10:00am 11.0 -1.4 11.0 100 0.0 WNW 67 76 36 41 1014.0 1013.9 0.2
17/09:39am 10.5 -0.5 10.5 100 0.0 WNW 59 78 32 42 1014.0 1013.9 0.2
17/09:30am 10.4 -0.1 10.4 100 0.0 WNW 56 65 30 35 1014.4 1014.4 0.2
17/09:00am 9.8 -3.3 9.8 100 0.0 WNW 69 95 37 51 1014.1 1014.0 10.2
17/08:55am 10.4 -1.4 10.4 100 0.0 WNW 63 89 34 48 1013.8 1013.7 10.0
17/08:30am 10.3 -1.2 10.3 100 0.0 WNW 61 76 33 41 1013.7 1013.6 9.0
17/08:00am 10.7 -0.3 10.7 100 0.0 WNW 59 72 32 39 1013.5 1013.4 8.8
17/07:30am 10.1 -0.7 10.1 100 0.0 WNW 57 69 31 37 1013.6 1013.5 8.8
17/07:00am 10.1 -2.2 10.1 100 0.0 WNW 65 78 35 42 1013.1 1013.0 8.8
17/06:30am 9.8 -2.6 9.8 100 0.0 WNW 65 80 35 43 1012.8 1012.7 8.8
17/06:02am 10.8 -2.2 10.8 100 0.0 WNW 70 89 38 48 1012.0 1011.9 8.6
17/06:00am 10.9 -2.1 10.9 100 0.0 WNW 70 80 38 43 1012.2 1012.1 8.6
17/05:30am 9.6 -3.2 9.6 100 0.0 W 67 96 36 52 1011.5 1011.4 8.2
17/05:28am 10.2 -1.3 10.2 100 0.0 W 61 83 33 45 1012.3 1012.2 7.8
17/05:00am 10.4 -2.2 10.4 100 0.0 W 67 78 36 42 1012.0 1011.9 6.6
17/04:31am 10.7 0.3 10.7 100 0.0 WNW 56 74 30 40 1012.0 1011.9 6.2
17/04:30am 10.9 0.9 10.9 100 0.0 WNW 54 67 29 36 1012.0 1011.9 5.8
17/04:00am 10.7 -0.6 10.7 100 0.0 WNW 61 70 33 38 1011.5 1011.4 5.6
17/03:46am 10.6 -0.8 10.6 100 0.0 WNW 61 80 33 43 1011.3 1011.2 5.6
17/03:30am 10.3 -1.9 10.3 100 0.0 W 65 76 35 41 1011.5 1011.4 5.6
17/03:24am 10.0 -1.2 10.0 100 0.0 WNW 59 76 32 41 1011.5 1011.4 5.4
17/03:09am 10.0 0.6 10.0 100 0.0 WNW 50 67 27 36 1011.8 1011.7 5.0
17/03:06am 9.8 -0.8 9.8 100 0.0 WNW 56 69 30 37 1012.0 1011.9 5.0
17/03:03am 9.7 -2.3 9.7 100 0.0 WNW 63 82 34 44 1011.8 1011.7 5.0
17/03:00am 9.8 -3.3 9.8 100 0.0 WNW 69 82 37 44 1011.8 1011.7 5.0
17/02:49am 9.9 -2.4 9.9 100 0.0 WNW 65 85 35 46 1011.7 1011.6 4.8
17/02:40am 10.1 -2.6 10.1 100 0.0 W 67 85 36 46 1011.1 1011.0 4.4
17/02:30am 9.8 -1.4 9.8 100 0.0 WNW 59 82 32 44 1011.7 1011.6 4.0
17/02:26am 10.1 -0.7 10.1 100 0.0 WNW 57 82 31 44 1011.9 1011.8 3.8
17/02:00am 10.7 -0.3 10.7 100 0.0 WNW 59 69 32 37 1011.6 1011.5 3.2
17/01:30am 10.8 -0.1 10.8 100 0.0 WNW 59 76 32 41 1011.7 1011.6 3.2
17/01:28am 10.7 0.1 10.7 100 0.0 WNW 57 76 31 41 1011.5 1011.4 3.2
17/01:00am 10.5 0.1 10.5 100 0.0 WNW 56 69 30 37 1011.7 1011.6 3.2
17/12:30am 10.3 -0.8 10.3 100 0.0 WNW 59 72 32 39 1011.4 1011.3 3.2
17/12:00am 9.7 -2.7 9.7 100 0.0 W 65 83 35 45 1011.9 1011.8 3.0
 
Date/Time
EST
Temp
°C
App
Temp
°C
Dew
Point
°C
Rel
Hum
%
Delta-T
°C
Wind Press
QNH
hPa
Press
MSL
hPa
Rain since
9am
mm
Dir  Spd
km/h
Gust
km/h
Spd
kts
Gust
kts
16/11:43pm 11.6 0.1 11.6 100 0.0 WNW 63 83 34 45 1011.2 1011.1 2.6
16/11:30pm 12.0 1.4 12.0 100 0.0 WNW 59 72 32 39 1011.6 1011.5 2.6
16/11:00pm 12.2 -0.3 12.0 99 0.1 W 69 80 37 43 1011.4 1011.3 2.6
16/10:30pm 11.9 0.9 11.9 100 0.0 WNW 61 72 33 39 1011.2 1011.1 2.6
16/10:00pm 12.2 -0.2 12.2 100 0.0 WNW 69 80 37 43 1011.0 1010.9 2.6
16/09:48pm 11.9 -0.2 11.9 100 0.0 WNW 67 85 36 46 1010.9 1010.8 2.6
16/09:30pm 11.4 -0.5 11.4 100 0.0 WNW 65 80 35 43 1010.7 1010.6 2.6
16/09:04pm 11.6 -0.2 11.6 100 0.0 WNW 65 83 35 45 1010.9 1010.8 2.6
16/09:00pm 11.4 -1.3 11.4 100 0.0 WNW 69 83 37 45 1010.8 1010.7 2.6
16/08:30pm 10.4 -2.2 10.4 100 0.0 W 67 78 36 42 1010.7 1010.6 2.6
16/08:00pm 9.9 -5.3 9.9 100 0.0 W 80 93 43 50 1010.9 1010.8 2.4
16/07:46pm 11.1 -3.0 11.1 100 0.0 W 76 98 41 53 1010.6 1010.5 1.8
16/07:30pm 11.4 -3.0 11.4 100 0.0 WSW 78 95 42 51 1010.5 1010.4 1.8
16/07:20pm 11.6 -4.0 11.6 100 0.0 W 85 102 46 55 1010.1 1010.1 1.8
16/07:14pm 12.4 -2.5 12.2 99 0.1 W 82 102 44 55 1009.5 1009.5 1.8
16/07:00pm 12.8 -0.1 12.6 99 0.1 W 72 93 39 50 1009.6 1009.6 1.8
16/06:58pm 12.7 0.4 12.7 100 0.0 W 69 89 37 48 1009.8 1009.8 1.8
16/06:30pm 12.4 1.9 12.4 100 0.0 WNW 59 70 32 38 1009.7 1009.7 1.8
16/06:00pm 12.1 1.5 12.1 100 0.0 WNW 59 76 32 41 1009.2 1009.2 1.8
16/05:30pm 11.5 0.4 11.5 100 0.0 W 61 72 33 39 1008.8 1008.8 1.8
16/05:00pm 11.9 2.6 11.9 100 0.0 W 52 63 28 34 1009.2 1009.2 1.6
16/04:30pm 11.2 0.4 11.2 100 0.0 W 59 76 32 41 1008.8 1008.8 1.6
16/04:00pm 12.6 2.6 12.6 100 0.0 W 57 69 31 37 1008.8 1008.8 0.0
16/03:33pm 13.2 5.1 13.2 100 0.0 WNW 48 67 26 36 1008.5 1008.5 0.0
16/03:30pm 12.9 4.7 12.9 100 0.0 W 48 57 26 31 1008.9 1008.9 0.0
16/03:00pm 13.1 3.2 13.1 100 0.0 W 57 76 31 41 1008.8 1008.8 0.0
16/02:30pm 13.9 2.7 13.7 99 0.1 WNW 65 80 35 43 1008.3 1008.3 0.0
16/02:00pm 14.2 2.7 13.9 98 0.2 WNW 67 78 36 42 1008.1 1008.1 0.0
16/01:30pm 14.0 2.1 13.8 99 0.1 WNW 69 82 37 44 1008.3 1008.3 0.0
16/01:00pm 13.7 2.1 13.5 99 0.1 WNW 67 82 36 44 1008.2 1008.2 0.0
16/12:30pm 13.9 1.7 13.6 98 0.2 WNW 70 87 38 47 1008.2 1008.2 0.0
16/12:25pm 14.1 2.5 13.6 97 0.3 WNW 67 87 36 47 1008.2 1008.2 0.0
16/12:00pm 14.5 3.5 14.3 99 0.1 WNW 65 82 35 44 1008.8 1008.8 0.0
16/11:43am 14.1 2.2 13.9 99 0.1 WNW 69 87 37 47 1008.6 1008.6 0.0
16/11:30am 14.3 3.3 14.1 99 0.1 WNW 65 76 35 41 1009.1 1009.1 0.0
16/11:00am 12.6 1.1 12.6 100 0.0 W 65 76 35 41 1009.1 1009.1 0.0
16/10:30am 12.6 -0.3 12.6 100 0.0 W 72 83 39 45 1009.1 1009.1 0.0
16/10:22am 13.6 2.4 13.6 100 0.0 WNW 65 83 35 45 1008.8 1008.8 0.0
16/10:00am 13.8 3.4 13.8 100 0.0 WNW 61 76 33 41 1009.1 1009.1 0.0
16/09:30am 13.8 1.8 13.6 99 0.1 WNW 69 80 37 43 1008.7 1008.7 0.0
16/09:00am 13.4 2.5 13.4 100 0.0 WNW 63 74 34 40 1008.8 1008.8 0.4
16/08:33am 13.1 2.9 13.1 100 0.0 WNW 59 80 32 43 1008.4 1008.4 0.4
16/08:30am 13.1 2.9 13.1 100 0.0 WNW 59 70 32 38 1008.6 1008.6 0.4
16/08:00am 13.3 2.8 13.3 100 0.0 WNW 61 72 33 39 1008.5 1008.5 0.4
16/07:30am 13.1 2.5 13.1 100 0.0 WNW 61 70 33 38 1008.1 1008.1 0.4
16/07:00am 13.3 2.3 13.1 99 0.1 WNW 63 78 34 42 1007.7 1007.7 0.4
16/06:30am 13.3 2.7 13.1 99 0.1 WNW 61 76 33 41 1007.7 1007.7 0.4
16/06:00am 13.2 3.4 13.2 100 0.0 WNW 57 69 31 37 1007.7 1007.7 0.4
16/05:30am 13.5 3.9 13.3 99 0.1 WNW 56 69 30 37 1007.7 1007.7 0.4
16/05:00am 13.3 3.4 13.1 99 0.1 WNW 57 70 31 38 1007.5 1007.5 0.4
16/04:48am 13.4 4.1 13.2 99 0.1 WNW 54 72 29 39 1007.5 1007.5 0.4
16/04:30am 13.3 3.1 13.1 99 0.1 WNW 59 72 32 39 1007.1 1007.1 0.4
16/04:00am 13.4 3.6 13.2 99 0.1 WNW 57 67 31 36 1007.1 1007.1 0.4
16/03:30am 13.6 3.1 13.4 99 0.1 WNW 61 74 33 40 1006.8 1006.7 0.4
16/03:00am 13.7 4.0 13.5 99 0.1 WNW 57 76 31 41 1006.5 1006.4 0.4
16/02:35am 14.0 2.5 13.8 99 0.1 W 67 85 36 46 1006.7 1006.6 0.4
16/02:30am 13.9 1.4 13.7 99 0.1 W 72 85 39 46 1006.5 1006.4 0.4
16/02:14am 13.9 2.0 13.7 99 0.1 WNW 69 87 37 47 1006.3 1006.2 0.4
16/02:00am 14.0 1.9 13.8 99 0.1 W 70 83 38 45 1006.2 1006.1 0.4
16/01:49am 14.0 1.6 14.0 100 0.0 W 72 91 39 49 1006.2 1006.1 0.4
16/01:30am 14.1 1.0 14.1 100 0.0 W 76 89 41 48 1006.2 1006.1 0.4
16/01:16am 14.1 1.3 14.1 100 0.0 W 74 95 40 51 1005.8 1005.7 0.4
16/01:00am 14.0 2.5 14.0 100 0.0 WNW 67 82 36 44 1006.3 1006.2 0.4
16/12:59am 14.0 2.5 14.0 100 0.0 WNW 67 85 36 46 1006.4 1006.3 0.4
16/12:30am 13.7 1.6 13.7 100 0.0 WNW 70 87 38 47 1005.8 1005.7 0.4
16/12:00am 12.7 -0.1 12.7 100 0.0 WNW 72 87 39 47 1005.7 1005.6 0.4
 
Date/Time
EST
Temp
°C
App
Temp
°C
Dew
Point
°C
Rel
Hum
%
Delta-T
°C
Wind Press
QNH
hPa
Press
MSL
hPa
Rain since
9am
mm
Dir  Spd
km/h
Gust
km/h
Spd
kts
Gust
kts
15/11:52pm 12.4 -2.6 12.4 100 0.0 W 83 96 45 52 1005.6 1005.5 0.4
15/11:30pm 12.6 -4.8 12.6 100 0.0 W 96 115 52 62 1004.9 1004.8 0.0
15/11:21pm 13.6 -2.2 13.6 100 0.0 WNW 89 107 48 58 1004.7 1004.6 0.0
15/11:00pm 15.9 2.1 15.9 100 0.0 WNW 83 96 45 52 1004.3 1004.2 0.0
15/10:30pm 16.6 3.0 16.4 99 0.1 WNW 83 96 45 52 1004.3 1004.2 0.0
15/10:19pm 16.7 5.2 16.4 98 0.2 WNW 72 93 39 50 1004.1 1004.0 0.0
15/10:02pm 16.6 7.9 16.4 99 0.1 WNW 57 76 31 41 1004.9 1004.8 0.0
15/10:00pm 16.6 8.1 16.4 99 0.1 WNW 56 70 30 38 1005.0 1004.9 0.0
15/09:30pm 16.4 8.3 16.4 100 0.0 NW 54 65 29 35 1005.3 1005.2 0.0
15/09:00pm 16.6 7.2 16.4 99 0.1 NW 61 70 33 38 1004.8 1004.7 0.0
15/08:30pm 16.6 7.2 16.4 99 0.1 NW 61 72 33 39 1004.9 1004.8 0.0
15/08:00pm 16.5 8.4 16.3 99 0.1 NW 54 65 29 35 1005.1 1005.0 0.0
15/07:30pm 16.5 8.8 16.5 100 0.0 NW 52 59 28 32 1005.5 1005.4 0.0
15/07:00pm 16.4 10.4 16.4 100 0.0 NW 43 54 23 29 1005.9 1005.8 0.0
15/06:30pm 15.9 11.6 15.9 100 0.0 NNW 33 41 18 22 1006.2 1006.1 0.0
15/06:00pm 15.9 11.6 15.9 100 0.0 NW 33 41 18 22 1006.3 1006.2 0.0
15/05:30pm 16.1 11.5 16.1 100 0.0 NW 35 43 19 23 1006.1 1006.0 0.0
15/05:00pm 16.5 10.9 16.5 100 0.0 NW 41 50 22 27 1006.0 1005.9 0.0
15/04:30pm 16.8 12.1 16.8 100 0.0 NW 37 50 20 27 1006.1 1006.0 0.0
15/04:00pm 17.1 11.7 16.9 99 0.1 NW 41 48 22 26 1006.2 1006.1 0.0
15/03:30pm 17.8 14.2 17.6 99 0.1 NW 33 44 18 24 1006.3 1006.2 0.0
15/03:00pm 17.0 12.7 17.0 100 0.0 WNW 35 46 19 25 1006.5 1006.4 0.0
15/02:30pm 17.0 10.3 17.0 100 0.0 WNW 48 54 26 29 1006.0 1005.9 0.0
15/02:00pm 17.4 12.9 17.4 100 0.0 NW 37 48 20 26 1006.4 1006.3 0.0
15/01:30pm 17.4 13.3 17.4 100 0.0 WNW 35 39 19 21 1007.1 1007.1 0.0
15/01:00pm 16.9 12.6 16.9 100 0.0 WNW 35 41 19 22 1007.5 1007.5 0.0
15/12:30pm 18.1 14.9 18.1 100 0.0 NW 32 43 17 23 1008.0 1008.0 0.0
15/12:00pm 17.4 15.0 17.4 100 0.0 NW 26 35 14 19 1008.7 1008.7 0.0
15/11:30am 16.7 10.8 16.7 100 0.0 NW 43 50 23 27 1008.8 1008.8 0.0
15/11:00am 16.7 12.7 16.7 100 0.0 NW 33 41 18 22 1009.7 1009.7 0.0
15/10:30am 16.1 12.1 16.1 100 0.0 NW 32 39 17 21 1010.1 1010.1 0.0
15/10:00am 16.2 12.2 16.2 100 0.0 NW 32 43 17 23 1010.2 1010.2 0.0
15/09:30am 15.8 12.8 15.8 100 0.0 NW 26 35 14 19 1010.6 1010.5 0.0
15/09:00am 15.5 11.6 15.5 100 0.0 WNW 30 39 16 21 1010.8 1010.7 1.4
15/08:30am 15.2 10.3 15.2 100 0.0 NW 35 41 19 22 1010.7 1010.6 1.4
15/08:00am 14.9 9.1 14.9 100 0.0 NW 39 48 21 26 1010.7 1010.6 1.4
15/07:30am 14.9 9.1 14.9 100 0.0 WNW 39 46 21 25 1010.5 1010.4 1.4
15/07:00am 14.6 9.8 14.6 100 0.0 NW 33 44 18 24 1010.3 1010.3 1.4
15/06:30am 15.0 8.3 15.0 100 0.0 WNW 44 50 24 27 1010.0 1010.0 1.4
15/06:00am 15.1 8.4 15.1 100 0.0 WNW 44 50 24 27 1010.0 1010.0 1.4
15/05:30am 15.1 8.6 15.1 100 0.0 WNW 43 52 23 28 1009.9 1009.9 1.4
15/05:00am 15.3 7.9 15.3 100 0.0 WNW 48 56 26 30 1009.8 1009.8 1.4
15/04:30am 15.3 7.9 15.3 100 0.0 WNW 48 54 26 29 1009.7 1009.7 1.4
15/04:00am 15.4 8.1 15.4 100 0.0 WNW 48 57 26 31 1009.8 1009.8 1.4
15/03:30am 15.2 8.5 15.2 100 0.0 WNW 44 57 24 31 1009.8 1009.8 1.4
15/03:00am 14.8 10.1 14.8 100 0.0 NW 33 41 18 22 1010.5 1010.4 1.4
15/02:30am 14.9 9.8 14.9 100 0.0 NW 35 44 19 24 1010.7 1010.6 1.4
15/02:00am 14.9 9.1 14.9 100 0.0 NW 39 44 21 24 1010.5 1010.4 1.4
15/01:30am 15.3 8.9 15.3 100 0.0 WNW 43 52 23 28 1010.3 1010.3 1.4
15/01:00am 15.4 8.1 15.4 100 0.0 WNW 48 57 26 31 1010.2 1010.2 1.4
15/12:30am 15.2 8.5 15.2 100 0.0 WNW 44 52 24 28 1010.5 1010.4 1.4
15/12:00am 15.3 7.9 15.3 100 0.0 WNW 48 57 26 31 1010.5 1010.4 1.4
 
Date/Time
EST
Temp
°C
App
Temp
°C
Dew
Point
°C
Rel
Hum
%
Delta-T
°C
Wind Press
QNH
hPa
Press
MSL
hPa
Rain since
9am
mm
Dir  Spd
km/h
Gust
km/h
Spd
kts
Gust
kts
14/11:30pm 15.3 7.9 15.3 100 0.0 WNW 48 59 26 32 1010.6 1010.5 1.4
14/11:00pm 15.1 9.0 15.1 100 0.0 NW 41 52 22 28 1010.7 1010.6 1.4
14/10:30pm 15.2 8.2 15.2 100 0.0 NW 46 56 25 30 1010.8 1010.7 1.4
14/10:00pm 15.2 8.7 15.2 100 0.0 NW 43 50 23 27 1011.2 1011.1 1.4
14/09:30pm 15.3 9.6 15.3 100 0.0 NW 39 44 21 24 1011.1 1011.0 1.4
14/09:00pm 15.1 9.7 15.1 100 0.0 NW 37 46 20 25 1011.1 1011.0 1.4
14/08:30pm 15.1 10.7 15.1 100 0.0 NW 32 35 17 19 1011.0 1010.9 1.4
14/08:00pm 15.1 11.1 15.1 100 0.0 NNW 30 37 16 20 1010.9 1010.8 1.4
14/07:30pm 15.0 12.8 15.0 100 0.0 NNW 20 26 11 14 1011.0 1010.9 1.4
14/07:00pm 15.3 13.2 15.3 100 0.0 NNW 20 28 11 15 1010.9 1010.8 1.4

Other formats

Comma delimited format used in spreadsheet applications
http://www.bom.gov.au/fwo/IDV60801/IDV60801.94949.axf

JavaScript Object Notation format (JSON) in row-major order
http://www.bom.gov.au/fwo/IDV60801/IDV60801.94949.json

Data quality

Most of these data are generated automatically and are frequently updated. Quality checks on data are not normally performed. It is possible for incorrect values to appear. Refer to information at About Latest Weather Observations and please check the disclaimer before using these data.